Time;durP1;ratioP1;P1;durP2;ratioP2;P2;SDS_P1;SDS_P2;PMS_P1;PMS_P2;Temp;Humidity;BMP_temperature;BMP_pressure;BME280_temperature;BME280_humidity;BME280_pressure;Samples;Min_cycle;Max_cycle;Signal;HPM_P1;HPM_P2
2022/07/22 00:00:35;;;;;;;7.40;4.07;;;;;;;;;;6187342;28;20042;-81
2022/07/22 00:03:36;;;;;;;9.90;3.97;;;;;;;;;;6150427;28;20074;-81
2022/07/22 00:06:36;;;;;;;10.30;4.70;;;;;;;;;;6175285;28;20478;-81
2022/07/22 00:09:36;;;;;;;7.20;3.87;;;;;;;;;;6193370;28;20026;-81
2022/07/22 00:12:37;;;;;;;7.20;3.37;;;;;;;;;;6175142;28;20087;-81
2022/07/22 00:15:37;;;;;;;9.17;3.47;;;;;;;;;;6164069;28;20427;-81
2022/07/22 00:18:38;;;;;;;9.43;4.80;;;;;;;;;;6181047;28;20447;-81
2022/07/22 00:21:38;;;;;;;9.03;4.23;;;;;;;;;;6184134;28;20023;-81
2022/07/22 00:24:38;;;;;;;7.57;3.73;;;;;;;;;;6164209;28;20058;-81
2022/07/22 00:27:38;;;;;;;6.73;3.40;;;;;;;;;;6166524;28;20114;-81
2022/07/22 00:30:39;;;;;;;10.93;4.33;;;;;;;;;;6169407;28;20023;-81
2022/07/22 00:33:39;;;;;;;9.77;3.43;;;;;;;;;;6189452;28;20026;-81
2022/07/22 00:36:39;;;;;;;10.03;4.27;;;;;;;;;;6178840;28;20014;-81
2022/07/22 00:39:39;;;;;;;7.07;3.80;;;;;;;;;;6170006;28;20159;-81
2022/07/22 00:42:40;;;;;;;9.00;3.80;;;;;;;;;;6153653;28;20085;-82
2022/07/22 00:45:40;;;;;;;8.67;4.23;;;;;;;;;;6181610;28;20540;-80
2022/07/22 00:48:40;;;;;;;8.43;3.97;;;;;;;;;;6180397;28;20118;-81
2022/07/22 00:51:41;;;;;;;12.97;5.03;;;;;;;;;;6173565;28;20033;-80
2022/07/22 00:54:41;;;;;;;7.37;3.77;;;;;;;;;;6188535;28;20057;-81
2022/07/22 00:57:41;;;;;;;7.30;3.33;;;;;;;;;;6167324;28;20034;-81
2022/07/22 01:00:42;;;;;;;9.27;4.73;;;;;;;;;;6170482;28;20411;-81
2022/07/22 01:03:42;;;;;;;8.53;4.27;;;;;;;;;;6165744;28;20034;-81
2022/07/22 01:06:45;;;;;;;9.60;3.53;;;;;;;;;;6167885;28;20105;-81
2022/07/22 01:09:46;;;;;;;10.27;4.28;;;;;;;;;;6173227;28;20054;-81
2022/07/22 01:12:46;;;;;;;9.10;4.07;;;;;;;;;;6180358;28;20026;-80
2022/07/22 01:15:46;;;;;;;8.23;3.43;;;;;;;;;;6175245;28;20027;-81
2022/07/22 01:18:46;;;;;;;5.97;3.63;;;;;;;;;;6168815;28;20034;-81
2022/07/22 01:21:47;;;;;;;7.90;3.93;;;;;;;;;;6151065;28;20022;-80
2022/07/22 01:24:47;;;;;;;11.50;4.47;;;;;;;;;;6154671;28;20034;-80
2022/07/22 01:27:47;;;;;;;5.20;3.30;;;;;;;;;;6180904;28;20025;-80
2022/07/22 01:30:49;;;;;;;7.65;4.05;;;;;;;;;;6161197;28;20023;-80
2022/07/22 01:33:50;;;;;;;10.43;4.40;;;;;;;;;;6166374;28;20030;-80
2022/07/22 01:36:50;;;;;;;9.03;3.80;;;;;;;;;;6179291;28;20027;-80
2022/07/22 01:39:50;;;;;;;9.03;4.00;;;;;;;;;;6173487;28;20029;-80
2022/07/22 01:42:50;;;;;;;9.67;4.97;;;;;;;;;;6172710;28;20054;-81
2022/07/22 01:45:51;;;;;;;9.57;3.97;;;;;;;;;;6165035;28;20526;-81
2022/07/22 01:48:52;;;;;;;8.73;4.10;;;;;;;;;;6163498;28;20118;-81
2022/07/22 01:51:53;;;;;;;8.03;3.50;;;;;;;;;;6168624;28;20023;-81
2022/07/22 01:54:53;;;;;;;8.70;4.13;;;;;;;;;;6160816;28;20027;-81
2022/07/22 01:57:53;;;;;;;10.37;3.50;;;;;;;;;;6176729;28;20042;-81
2022/07/22 02:00:53;;;;;;;10.70;4.67;;;;;;;;;;6172079;28;20058;-81
2022/07/22 02:03:53;;;;;;;10.33;3.73;;;;;;;;;;6183376;28;20027;-81
2022/07/22 02:06:54;;;;;;;8.55;4.22;;;;;;;;;;6181416;28;20026;-81
2022/07/22 02:09:54;;;;;;;14.80;4.60;;;;;;;;;;6161072;28;20102;-81
2022/07/22 02:12:54;;;;;;;13.13;4.90;;;;;;;;;;6178770;28;20026;-81
2022/07/22 02:15:55;;;;;;;12.87;5.97;;;;;;;;;;6168479;28;20018;-80
2022/07/22 02:18:55;;;;;;;10.97;3.90;;;;;;;;;;6163334;28;20026;-81
2022/07/22 02:21:55;;;;;;;9.38;5.18;;;;;;;;;;6154813;28;20450;-81
2022/07/22 02:24:55;;;;;;;10.63;4.20;;;;;;;;;;6167730;28;20029;-80
2022/07/22 02:27:56;;;;;;;11.82;5.63;;;;;;;;;;6173099;28;20277;-80
2022/07/22 02:30:56;;;;;;;14.83;4.70;;;;;;;;;;6181391;28;20506;-81
2022/07/22 02:33:56;;;;;;;9.00;4.03;;;;;;;;;;6195420;28;20026;-81
2022/07/22 02:36:56;;;;;;;7.30;4.10;;;;;;;;;;6167053;28;20045;-81
2022/07/22 02:39:57;;;;;;;8.73;3.95;;;;;;;;;;6192031;28;20022;-80
2022/07/22 02:42:57;;;;;;;6.07;3.67;;;;;;;;;;6152185;28;20054;-81
2022/07/22 02:45:57;;;;;;;9.70;4.32;;;;;;;;;;6176407;28;20018;-80
2022/07/22 02:48:57;;;;;;;9.40;4.93;;;;;;;;;;6173943;28;20019;-80
2022/07/22 02:51:58;;;;;;;7.37;4.50;;;;;;;;;;6173835;28;20022;-80
2022/07/22 02:54:58;;;;;;;16.13;4.77;;;;;;;;;;6168952;28;20019;-81
2022/07/22 02:58:03;;;;;;;8.43;4.18;;;;;;;;;;6159422;28;20023;-81
2022/07/22 03:01:03;;;;;;;8.77;5.20;;;;;;;;;;6176334;28;20065;-81
2022/07/22 03:04:04;;;;;;;8.07;4.27;;;;;;;;;;6170556;28;20371;-80
2022/07/22 03:07:04;;;;;;;9.98;3.78;;;;;;;;;;6184329;28;20455;-80
2022/07/22 03:10:04;;;;;;;7.70;4.53;;;;;;;;;;6170302;28;20025;-80
2022/07/22 03:13:05;;;;;;;10.03;3.87;;;;;;;;;;6164500;28;20101;-81
2022/07/22 03:16:05;;;;;;;9.43;4.17;;;;;;;;;;6154681;28;20438;-80
2022/07/22 03:19:05;;;;;;;7.50;4.40;;;;;;;;;;6160686;28;20258;-80
2022/07/22 03:22:05;;;;;;;7.32;4.13;;;;;;;;;;6174328;28;20030;-80
2022/07/22 03:25:06;;;;;;;7.53;4.30;;;;;;;;;;6158835;28;20138;-80
2022/07/22 03:28:06;;;;;;;7.17;4.97;;;;;;;;;;6193459;28;20023;-80
2022/07/22 03:31:07;;;;;;;11.10;4.70;;;;;;;;;;6184971;28;20161;-80
2022/07/22 03:34:07;;;;;;;10.17;4.53;;;;;;;;;;6172288;28;20026;-80
2022/07/22 03:37:07;;;;;;;12.47;5.67;;;;;;;;;;6184485;28;20037;-80
2022/07/22 03:40:08;;;;;;;12.30;5.10;;;;;;;;;;6168133;28;20023;-80
2022/07/22 03:43:08;;;;;;;8.97;4.93;;;;;;;;;;6168041;28;20022;-81
2022/07/22 03:46:08;;;;;;;8.20;4.43;;;;;;;;;;6193559;28;20057;-80
2022/07/22 03:49:09;;;;;;;9.77;4.90;;;;;;;;;;6151205;28;20045;-80
2022/07/22 03:52:09;;;;;;;11.40;5.77;;;;;;;;;;6166861;28;20038;-80
2022/07/22 03:55:09;;;;;;;16.08;5.22;;;;;;;;;;6175277;28;20019;-80
2022/07/22 03:58:09;;;;;;;13.40;4.97;;;;;;;;;;6166643;28;20450;-80
2022/07/22 04:01:10;;;;;;;12.00;5.28;;;;;;;;;;6192960;28;20096;-80
2022/07/22 04:04:10;;;;;;;14.35;5.95;;;;;;;;;;6178103;28;20054;-80
2022/07/22 04:07:10;;;;;;;13.37;6.03;;;;;;;;;;6181028;28;20026;-80
2022/07/22 04:10:10;;;;;;;17.03;6.43;;;;;;;;;;6171773;28;20015;-80
2022/07/22 04:13:11;;;;;;;10.77;5.80;;;;;;;;;;6179095;28;20185;-80
2022/07/22 04:16:11;;;;;;;11.70;5.97;;;;;;;;;;6163911;28;20021;-80
2022/07/22 04:19:11;;;;;;;12.23;5.38;;;;;;;;;;6178933;28;20023;-81
2022/07/22 04:22:11;;;;;;;12.20;5.20;;;;;;;;;;6167099;28;20101;-81
2022/07/22 04:25:11;;;;;;;14.13;5.57;;;;;;;;;;6177826;28;20023;-81
2022/07/22 04:28:12;;;;;;;16.77;7.57;;;;;;;;;;6177358;28;20033;-81
2022/07/22 04:31:12;;;;;;;13.17;7.60;;;;;;;;;;6162797;28;20031;-81
2022/07/22 04:34:12;;;;;;;20.50;7.10;;;;;;;;;;6176458;28;20027;-81
2022/07/22 04:37:12;;;;;;;14.30;7.23;;;;;;;;;;6185896;28;20025;-81
2022/07/22 04:40:12;;;;;;;17.33;8.00;;;;;;;;;;6175975;28;20064;-81
2022/07/22 04:43:13;;;;;;;29.73;9.90;;;;;;;;;;6172987;28;20065;-81
2022/07/22 04:46:13;;;;;;;16.48;7.25;;;;;;;;;;6166386;28;20023;-81
2022/07/22 04:49:13;;;;;;;16.20;7.90;;;;;;;;;;6190370;28;20034;-81
2022/07/22 04:52:13;;;;;;;13.73;7.40;;;;;;;;;;6153684;28;20047;-82
2022/07/22 04:55:13;;;;;;;15.13;8.37;;;;;;;;;;6169597;28;20187;-82
2022/07/22 04:58:14;;;;;;;16.23;8.07;;;;;;;;;;6175463;28;20017;-82
2022/07/22 05:01:14;;;;;;;15.67;7.77;;;;;;;;;;6150418;28;20050;-82
2022/07/22 05:04:14;;;;;;;16.90;7.97;;;;;;;;;;6176043;28;20015;-81
2022/07/22 05:07:14;;;;;;;13.10;8.07;;;;;;;;;;6152893;28;20019;-81
2022/07/22 05:10:15;;;;;;;19.00;8.03;;;;;;;;;;6168087;28;20019;-81
2022/07/22 05:13:15;;;;;;;18.73;7.43;;;;;;;;;;6181243;28;20015;-81
2022/07/22 05:16:15;;;;;;;19.97;8.53;;;;;;;;;;6182789;28;20073;-81
2022/07/22 05:19:15;;;;;;;13.93;7.13;;;;;;;;;;6177191;28;20028;-81
2022/07/22 05:22:16;;;;;;;17.17;7.27;;;;;;;;;;6182300;28;20027;-81
2022/07/22 05:25:16;;;;;;;15.93;7.15;;;;;;;;;;6185109;28;20471;-81
2022/07/22 05:28:16;;;;;;;11.90;7.67;;;;;;;;;;6180618;28;20106;-81
2022/07/22 05:31:16;;;;;;;18.25;7.40;;;;;;;;;;6180535;28;20158;-81
2022/07/22 05:34:16;;;;;;;16.88;8.60;;;;;;;;;;6168390;28;20390;-81
2022/07/22 05:37:17;;;;;;;12.57;7.20;;;;;;;;;;6166549;28;20018;-81
2022/07/22 05:40:17;;;;;;;17.37;7.30;;;;;;;;;;6177446;28;20077;-81
2022/07/22 05:43:17;;;;;;;19.17;7.10;;;;;;;;;;6159476;28;20058;-81
2022/07/22 05:46:17;;;;;;;14.27;8.03;;;;;;;;;;6175418;28;20033;-82
2022/07/22 05:49:18;;;;;;;11.63;7.45;;;;;;;;;;6187110;28;20123;-82
2022/07/22 05:52:18;;;;;;;11.43;7.07;;;;;;;;;;6173924;28;20033;-82
2022/07/22 05:55:18;;;;;;;;;;;;;;;;;;6178158;28;20022;-82
2022/07/22 05:58:18;;;;;;;13.37;8.20;;;;;;;;;;6159278;28;19918;-80
2022/07/22 06:01:18;;;;;;;11.97;6.93;;;;;;;;;;6190968;28;20103;-80
2022/07/22 06:04:19;;;;;;;;;;;;;;;;;;6172815;28;20026;-81
2022/07/22 06:07:19;;;;;;;12.18;7.90;;;;;;;;;;6162503;28;19918;-81
2022/07/22 06:10:19;;;;;;;;;;;;;;;;;;6189737;28;20030;-81
2022/07/22 06:13:19;;;;;;;13.13;7.70;;;;;;;;;;6200040;28;19917;-81
2022/07/22 06:16:19;;;;;;;;;;;;;;;;;;6165651;28;20034;-81
2022/07/22 06:19:20;;;;;;;11.82;7.68;;;;;;;;;;6171516;28;20370;-81
2022/07/22 06:22:20;;;;;;;12.60;7.07;;;;;;;;;;6174936;28;20110;-81
2022/07/22 06:25:20;;;;;;;11.10;8.90;;;;;;;;;;6168380;28;20387;-81
2022/07/22 06:28:20;;;;;;;;;;;;;;;;;;6176208;28;20050;-81
2022/07/22 06:31:21;;;;;;;18.20;8.40;;;;;;;;;;6176422;28;19925;-81
2022/07/22 06:34:21;;;;;;;;;;;;;;;;;;6163952;28;20019;-81
2022/07/22 06:37:21;;;;;;;11.30;7.35;;;;;;;;;;6175576;28;19909;-81
2022/07/22 06:40:21;;;;;;;13.67;7.77;;;;;;;;;;6169617;28;20031;-81
2022/07/22 06:43:21;;;;;;;15.83;7.43;;;;;;;;;;6175322;28;20041;-81
2022/07/22 06:46:22;;;;;;;15.37;8.17;;;;;;;;;;6156579;28;20015;-82
2022/07/22 06:49:22;;;;;;;16.03;8.00;;;;;;;;;;6160356;28;20073;-83
2022/07/22 06:52:22;;;;;;;11.93;7.80;;;;;;;;;;6183455;28;20393;-82
2022/07/22 06:55:22;;;;;;;11.32;7.25;;;;;;;;;;6177613;28;20635;-82
2022/07/22 06:58:22;;;;;;;11.80;7.97;;;;;;;;;;6178307;28;20109;-82
2022/07/22 07:01:23;;;;;;;11.90;7.57;;;;;;;;;;6157755;28;20038;-82
2022/07/22 07:04:23;;;;;;;9.17;7.97;;;;;;;;;;6168737;28;20049;-81
2022/07/22 07:07:23;;;;;;;11.03;8.57;;;;;;;;;;6153573;28;20778;-82
2022/07/22 07:10:23;;;;;;;14.53;8.43;;;;;;;;;;6171001;28;20498;-82
2022/07/22 07:13:24;;;;;;;16.70;8.73;;;;;;;;;;6159191;28;20482;-82
2022/07/22 07:16:24;;;;;;;13.60;8.00;;;;;;;;;;6184042;28;20018;-82
2022/07/22 07:19:24;;;;;;;18.27;8.37;;;;;;;;;;6178250;28;20019;-82
2022/07/22 07:22:24;;;;;;;14.47;8.77;;;;;;;;;;6161039;28;20042;-82
2022/07/22 07:25:25;;;;;;;19.47;9.13;;;;;;;;;;6154076;28;20034;-82
2022/07/22 07:28:25;;;;;;;11.57;8.05;;;;;;;;;;6167124;28;20031;-82
2022/07/22 07:31:25;;;;;;;13.73;8.47;;;;;;;;;;6149874;28;20502;-82
2022/07/22 07:34:25;;;;;;;11.77;7.97;;;;;;;;;;6175745;28;20026;-82
2022/07/22 07:37:26;;;;;;;12.63;9.10;;;;;;;;;;6162027;28;20046;-81
2022/07/22 07:40:26;;;;;;;15.63;8.20;;;;;;;;;;6182546;28;20733;-81
2022/07/22 07:43:26;;;;;;;14.63;8.05;;;;;;;;;;6159741;28;20014;-82
2022/07/22 07:46:26;;;;;;;12.87;8.23;;;;;;;;;;6174489;28;20027;-82
2022/07/22 07:49:27;;;;;;;15.03;8.33;;;;;;;;;;6163011;28;20027;-82
2022/07/22 07:52:27;;;;;;;15.53;8.10;;;;;;;;;;6181588;28;20689;-82
2022/07/22 07:55:27;;;;;;;15.43;8.57;;;;;;;;;;6157777;28;20037;-82
2022/07/22 07:58:27;;;;;;;14.17;8.07;;;;;;;;;;6149616;28;20118;-82
2022/07/22 08:01:28;;;;;;;13.38;7.63;;;;;;;;;;6170509;28;20263;-82
2022/07/22 08:04:28;;;;;;;12.00;7.83;;;;;;;;;;6169059;28;20037;-82
2022/07/22 08:07:28;;;;;;;13.25;8.50;;;;;;;;;;6158624;28;20038;-82
2022/07/22 08:10:29;;;;;;;12.23;7.82;;;;;;;;;;6167872;28;20027;-82
2022/07/22 08:13:29;;;;;;;14.57;7.97;;;;;;;;;;6147082;28;20019;-82
2022/07/22 08:16:29;;;;;;;17.27;8.30;;;;;;;;;;6156380;28;20034;-82
2022/07/22 08:19:29;;;;;;;11.23;7.87;;;;;;;;;;6183038;28;20021;-82
2022/07/22 08:22:30;;;;;;;12.27;8.07;;;;;;;;;;6156760;28;20054;-82
2022/07/22 08:25:30;;;;;;;12.63;8.17;;;;;;;;;;6175846;28;20029;-82
2022/07/22 08:28:30;;;;;;;11.50;7.43;;;;;;;;;;6169902;28;20007;-82
2022/07/22 08:31:34;;;;;;;14.60;8.13;;;;;;;;;;6146327;28;20474;-82
2022/07/22 08:34:34;;;;;;;12.93;7.93;;;;;;;;;;6171077;28;20081;-82
2022/07/22 08:37:35;;;;;;;12.65;8.23;;;;;;;;;;6158915;28;20023;-82
2022/07/22 08:40:35;;;;;;;12.33;7.07;;;;;;;;;;6173871;28;20038;-82
2022/07/22 08:43:39;;;;;;;11.45;8.25;;;;;;;;;;6162284;28;20266;-82
2022/07/22 08:46:39;;;;;;;12.65;8.23;;;;;;;;;;6172399;28;20562;-83
2022/07/22 08:49:40;;;;;;;14.27;7.50;;;;;;;;;;6155012;28;20030;-82
2022/07/22 08:52:40;;;;;;;12.35;8.07;;;;;;;;;;6156810;28;20034;-82
2022/07/22 08:55:41;;;;;;;13.75;8.32;;;;;;;;;;6165835;28;20028;-83
2022/07/22 08:58:41;;;;;;;12.00;7.63;;;;;;;;;;6170404;28;20054;-83
2022/07/22 09:02:01;;;;;;;13.93;7.97;;;;;;;;;;6182220;28;20029;-83
2022/07/22 09:05:03;;;;;;;15.43;7.82;;;;;;;;;;6158466;28;20136;-83
2022/07/22 09:08:03;;;;;;;13.35;8.15;;;;;;;;;;6146474;28;20379;-83
2022/07/22 09:11:16;;;;;;;15.93;9.00;;;;;;;;;;6166245;28;20057;-82
2022/07/22 09:14:16;;;;;;;15.02;7.50;;;;;;;;;;6153642;28;20194;-82
2022/07/22 09:17:30;;;;;;;8.87;7.33;;;;;;;;;;6166998;28;20961;-82
2022/07/22 09:20:31;;;;;;;12.32;7.57;;;;;;;;;;6151968;28;20398;-82
2022/07/22 09:23:39;;;;;;;12.35;7.45;;;;;;;;;;6165556;28;20036;-82
2022/07/22 09:26:39;;;;;;;11.45;8.43;;;;;;;;;;6166130;28;20125;-82
2022/07/22 09:29:48;;;;;;;15.75;8.43;;;;;;;;;;6165101;28;20041;-83
2022/07/22 09:32:49;;;;;;;14.43;7.95;;;;;;;;;;6154060;28;20054;-82
2022/07/22 09:35:50;;;;;;;13.02;8.10;;;;;;;;;;6176679;28;20053;-82
2022/07/22 09:38:50;;;;;;;12.25;8.15;;;;;;;;;;6169194;28;20035;-82
2022/07/22 09:41:57;;;;;;;11.27;8.02;;;;;;;;;;6146786;28;20053;-83
2022/07/22 09:44:57;;;;;;;11.15;7.68;;;;;;;;;;6164149;28;20026;-82
2022/07/22 09:47:58;;;;;;;12.00;6.73;;;;;;;;;;6157830;28;20027;-82
2022/07/22 09:50:58;;;;;;;10.88;6.45;;;;;;;;;;6165129;28;20023;-82
2022/07/22 09:53:59;;;;;;;14.97;7.47;;;;;;;;;;6153393;28;20023;-82
2022/07/22 09:56:59;;;;;;;10.82;7.07;;;;;;;;;;6158007;28;20022;-82
2022/07/22 09:59:59;;;;;;;15.03;7.53;;;;;;;;;;6165964;28;20101;-82
2022/07/22 10:03:01;;;;;;;7.97;6.90;;;;;;;;;;6173656;28;20574;-82
2022/07/22 10:06:02;;;;;;;15.25;7.45;;;;;;;;;;6160061;28;20033;-82
2022/07/22 10:09:02;;;;;;;11.95;7.20;;;;;;;;;;6162315;28;20019;-83
2022/07/22 10:12:02;;;;;;;12.30;7.25;;;;;;;;;;6153892;28;20041;-82
2022/07/22 10:15:03;;;;;;;10.25;6.82;;;;;;;;;;6167820;28;20018;-82
2022/07/22 10:18:06;;;;;;;12.52;6.75;;;;;;;;;;6168460;28;20062;-82
2022/07/22 10:21:07;;;;;;;12.73;7.85;;;;;;;;;;6151902;28;20022;-82
2022/07/22 10:24:17;;;;;;;16.67;6.80;;;;;;;;;;6173436;28;20019;-82
2022/07/22 10:27:38;;;;;;;9.68;7.13;;;;;;;;;;6158571;28;20031;-83
2022/07/22 10:30:41;;;;;;;;;;;;;;;;;;6175994;28;20459;-83
2022/07/22 10:33:43;;;;;;;11.25;7.43;;;;;;;;;;6163606;28;19940;-82
2022/07/22 10:36:43;;;;;;;13.73;7.40;;;;;;;;;;6158170;28;20018;-82
2022/07/22 10:40:02;;;;;;;12.80;7.20;;;;;;;;;;6155303;28;20019;-82
2022/07/22 10:43:03;;;;;;;11.00;7.10;;;;;;;;;;6170910;28;20106;-82
2022/07/22 10:46:05;;;;;;;9.32;7.05;;;;;;;;;;6160858;28;20045;-82
2022/07/22 10:49:07;;;;;;;12.25;7.38;;;;;;;;;;6169391;28;20026;-82
2022/07/22 10:52:16;;;;;;;9.80;7.13;;;;;;;;;;6158344;28;20026;-82
2022/07/22 10:55:21;;;;;;;9.88;6.65;;;;;;;;;;6167411;28;20015;-82
2022/07/22 10:58:33;;;;;;;13.32;7.82;;;;;;;;;;6170385;28;20029;-81
2022/07/22 11:01:34;;;;;;;8.88;6.03;;;;;;;;;;6164307;28;20109;-82
2022/07/22 11:04:35;;;;;;;9.93;5.93;;;;;;;;;;6157875;28;20053;-82
2022/07/22 11:07:46;;;;;;;14.93;7.22;;;;;;;;;;6193687;28;20022;-82
2022/07/22 11:10:47;;;;;;;9.70;6.97;;;;;;;;;;6173312;28;20479;-82
2022/07/22 11:13:48;;;;;;;10.25;6.53;;;;;;;;;;6166796;28;20375;-83
2022/07/22 11:16:49;;;;;;;8.77;6.05;;;;;;;;;;6161582;28;20022;-82
2022/07/22 11:19:50;;;;;;;12.30;7.13;;;;;;;;;;6146136;28;20027;-82
2022/07/22 11:22:51;;;;;;;18.17;7.90;;;;;;;;;;6173479;28;20019;-82
2022/07/22 11:25:51;;;;;;;12.32;7.07;;;;;;;;;;6170595;28;20074;-82
2022/07/22 11:28:51;;;;;;;12.35;7.00;;;;;;;;;;6152209;28;20432;-82
2022/07/22 11:31:52;;;;;;;7.20;5.17;;;;;;;;;;6182471;28;20061;-82
2022/07/22 11:34:52;;;;;;;10.23;5.78;;;;;;;;;;6171867;28;20758;-82
2022/07/22 11:37:56;;;;;;;10.03;6.10;;;;;;;;;;6172162;28;20030;-82
2022/07/22 11:40:56;;;;;;;8.57;5.85;;;;;;;;;;6168617;28;20112;-82
2022/07/22 11:43:56;;;;;;;14.60;6.67;;;;;;;;;;6151677;28;20038;-83
2022/07/22 11:46:59;;;;;;;12.15;5.97;;;;;;;;;;6151828;28;20022;-82
2022/07/22 11:50:00;;;;;;;8.07;5.30;;;;;;;;;;6155567;28;20022;-81
2022/07/22 11:53:01;;;;;;;9.37;5.90;;;;;;;;;;6174560;28;20411;-82
2022/07/22 11:56:02;;;;;;;9.55;4.85;;;;;;;;;;6162267;28;20109;-82
2022/07/22 11:59:06;;;;;;;6.13;4.75;;;;;;;;;;6169583;28;20050;-82
2022/07/22 12:02:09;;;;;;;7.72;4.93;;;;;;;;;;6151024;28;20058;-82
2022/07/22 12:05:09;;;;;;;8.75;5.40;;;;;;;;;;6173591;28;20977;-82
2022/07/22 12:08:09;;;;;;;7.33;5.83;;;;;;;;;;6156921;28;20054;-82
2022/07/22 12:11:11;;;;;;;9.90;5.63;;;;;;;;;;6170272;28;20805;-82
2022/07/22 12:14:11;;;;;;;7.93;5.57;;;;;;;;;;6153961;28;20554;-82
2022/07/22 12:17:11;;;;;;;8.23;5.45;;;;;;;;;;6151569;28;20609;-82
2022/07/22 12:20:12;;;;;;;8.48;6.43;;;;;;;;;;6167141;28;20027;-83
2022/07/22 12:23:13;;;;;;;8.48;5.50;;;;;;;;;;6150238;28;20023;-82
2022/07/22 12:26:13;;;;;;;10.90;5.65;;;;;;;;;;6169836;28;20026;-83
2022/07/22 12:29:19;;;;;;;12.37;5.43;;;;;;;;;;6170483;28;20637;-82
2022/07/22 12:32:22;;;;;;;7.35;5.82;;;;;;;;;;6155252;28;20050;-82
2022/07/22 12:35:22;;;;;;;8.57;5.85;;;;;;;;;;6171173;28;20033;-82
2022/07/22 12:38:23;;;;;;;8.97;6.20;;;;;;;;;;6164273;28;20399;-82
2022/07/22 12:41:27;;;;;;;10.77;6.50;;;;;;;;;;6167601;28;20034;-81
2022/07/22 12:44:27;;;;;;;11.27;6.65;;;;;;;;;;6160039;28;20034;-82
2022/07/22 12:47:46;;;;;;;10.73;6.67;;;;;;;;;;6174983;28;20031;-83
2022/07/22 12:50:56;;;;;;;8.68;6.55;;;;;;;;;;6184673;28;20015;-82
2022/07/22 12:53:56;;;;;;;9.73;6.23;;;;;;;;;;6178460;28;20081;-82
2022/07/22 12:56:56;;;;;;;9.93;6.30;;;;;;;;;;6169999;28;20027;-82
2022/07/22 12:59:56;;;;;;;10.10;6.13;;;;;;;;;;6175075;28;20125;-82
2022/07/22 13:02:56;;;;;;;9.93;6.30;;;;;;;;;;6171690;28;20388;-84
2022/07/22 13:05:58;;;;;;;11.40;6.70;;;;;;;;;;6171388;28;20030;-83
2022/07/22 13:08:58;;;;;;;8.80;5.82;;;;;;;;;;6153922;28;20062;-82
2022/07/22 13:11:58;;;;;;;12.65;6.60;;;;;;;;;;6165753;28;20029;-83
2022/07/22 13:14:58;;;;;;;9.07;6.07;;;;;;;;;;6173874;28;20042;-83
2022/07/22 13:17:59;;;;;;;10.80;6.57;;;;;;;;;;6163034;28;20016;-83
2022/07/22 13:20:59;;;;;;;8.20;6.13;;;;;;;;;;6166261;28;20031;-83
2022/07/22 13:23:59;;;;;;;11.68;6.57;;;;;;;;;;6156122;28;20473;-83
2022/07/22 13:26:59;;;;;;;10.05;5.72;;;;;;;;;;6156664;28;20047;-83
2022/07/22 13:30:00;;;;;;;13.60;6.57;;;;;;;;;;6172950;28;20438;-82
2022/07/22 13:33:00;;;;;;;10.43;6.73;;;;;;;;;;6176234;28;20049;-83
2022/07/22 13:36:01;;;;;;;16.27;7.00;;;;;;;;;;6146904;28;20294;-82
2022/07/22 13:39:02;;;;;;;11.25;6.45;;;;;;;;;;6146214;28;20023;-82
2022/07/22 13:42:03;;;;;;;12.20;6.28;;;;;;;;;;6162289;28;20030;-83
2022/07/22 13:45:04;;;;;;;9.23;6.25;;;;;;;;;;6180721;28;20494;-83
2022/07/22 13:48:04;;;;;;;10.45;5.93;;;;;;;;;;6155458;28;20046;-82
2022/07/22 13:51:04;;;;;;;7.27;5.63;;;;;;;;;;6168353;28;20033;-83
2022/07/22 13:54:05;;;;;;;7.20;5.22;;;;;;;;;;6175296;28;20015;-83
2022/07/22 13:57:05;;;;;;;8.33;5.83;;;;;;;;;;6175636;28;20047;-83
2022/07/22 14:00:07;;;;;;;10.25;5.85;;;;;;;;;;6155837;28;20047;-83
2022/07/22 14:03:07;;;;;;;11.43;7.50;;;;;;;;;;6160096;28;20153;-83
2022/07/22 14:06:08;;;;;;;14.93;6.60;;;;;;;;;;6156305;28;20360;-83
2022/07/22 14:09:09;;;;;;;11.68;6.93;;;;;;;;;;6160631;28;20098;-83
2022/07/22 14:12:09;;;;;;;10.13;5.50;;;;;;;;;;6171817;28;20810;-82
2022/07/22 14:15:09;;;;;;;9.83;6.27;;;;;;;;;;6172829;28;20030;-83
2022/07/22 14:18:10;;;;;;;9.57;5.63;;;;;;;;;;6159165;28;20027;-82
2022/07/22 14:21:10;;;;;;;9.17;6.50;;;;;;;;;;6158459;28;20118;-83
2022/07/22 14:24:10;;;;;;;11.93;7.03;;;;;;;;;;6151309;28;20104;-83
2022/07/22 14:27:10;;;;;;;8.63;6.47;;;;;;;;;;6178562;28;20620;-82
2022/07/22 14:30:11;;;;;;;12.30;6.57;;;;;;;;;;6193687;28;20030;-83
2022/07/22 14:33:11;;;;;;;8.60;5.65;;;;;;;;;;6155318;28;20021;-83
2022/07/22 14:36:11;;;;;;;9.80;6.93;;;;;;;;;;6174244;28;20031;-82
2022/07/22 14:39:11;;;;;;;11.30;6.83;;;;;;;;;;6188886;28;20474;-82
2022/07/22 14:42:12;;;;;;;8.60;6.53;;;;;;;;;;6161767;28;20106;-83
2022/07/22 14:45:12;;;;;;;9.80;6.30;;;;;;;;;;6156189;28;20022;-82
2022/07/22 14:48:12;;;;;;;10.13;6.70;;;;;;;;;;6154386;28;20026;-83
2022/07/22 14:51:12;;;;;;;8.90;5.77;;;;;;;;;;6152861;28;20038;-82
2022/07/22 14:54:13;;;;;;;15.93;7.00;;;;;;;;;;6158607;28;20102;-82
2022/07/22 14:57:13;;;;;;;13.65;6.72;;;;;;;;;;6169847;28;20019;-81
2022/07/22 15:00:13;;;;;;;11.13;6.30;;;;;;;;;;6159541;28;20128;-82
2022/07/22 15:03:13;;;;;;;8.87;6.27;;;;;;;;;;6164461;28;20274;-82
2022/07/22 15:06:14;;;;;;;10.83;6.67;;;;;;;;;;6169261;28;20361;-82
2022/07/22 15:09:14;;;;;;;6.97;5.85;;;;;;;;;;6155624;28;20023;-81
2022/07/22 15:12:14;;;;;;;14.50;6.27;;;;;;;;;;6151564;28;20054;-82
2022/07/22 15:15:14;;;;;;;11.48;7.28;;;;;;;;;;6174285;28;20033;-82
2022/07/22 15:18:15;;;;;;;10.05;5.78;;;;;;;;;;6174835;28;20030;-81
2022/07/22 15:21:16;;;;;;;13.27;9.90;;;;;;;;;;6169195;28;20510;-82
2022/07/22 15:24:16;;;;;;;12.60;6.90;;;;;;;;;;6165385;28;20072;-81
2022/07/22 15:27:18;;;;;;;11.93;6.40;;;;;;;;;;6156924;28;20022;-81
2022/07/22 15:30:19;;;;;;;13.73;6.88;;;;;;;;;;6166730;28;20103;-81
2022/07/22 15:33:20;;;;;;;11.70;5.68;;;;;;;;;;6160035;28;20029;-81
2022/07/22 15:36:20;;;;;;;9.77;6.23;;;;;;;;;;6152761;28;20034;-81
2022/07/22 15:39:21;;;;;;;9.30;6.10;;;;;;;;;;6171036;28;20038;-81
2022/07/22 15:42:21;;;;;;;8.35;6.07;;;;;;;;;;6153249;28;20061;-81
2022/07/22 15:45:22;;;;;;;10.27;5.87;;;;;;;;;;6173993;28;20031;-81
2022/07/22 15:48:22;;;;;;;10.05;6.28;;;;;;;;;;6173793;28;20098;-81
2022/07/22 15:51:23;;;;;;;8.90;6.10;;;;;;;;;;6160387;28;20027;-81
2022/07/22 15:54:24;;;;;;;9.50;6.18;;;;;;;;;;6142676;28;20271;-81
2022/07/22 16:00:51;;;;;;;9.07;6.63;;;;;;;;;;6161102;28;20050;-81
2022/07/22 16:03:51;;;;;;;8.50;5.97;;;;;;;;;;6178411;28;20389;-82
2022/07/22 16:06:52;;;;;;;7.57;5.93;;;;;;;;;;6175151;28;20018;-81
2022/07/22 16:09:52;;;;;;;9.70;6.37;;;;;;;;;;6175181;28;20081;-81
2022/07/22 16:12:52;;;;;;;11.70;6.20;;;;;;;;;;6160223;28;20023;-81
2022/07/22 16:15:52;;;;;;;9.88;6.15;;;;;;;;;;6180209;28;20475;-82
2022/07/22 16:18:52;;;;;;;15.30;6.50;;;;;;;;;;6158323;28;20087;-83
2022/07/22 16:21:53;;;;;;;9.07;6.30;;;;;;;;;;6184344;28;20426;-81
2022/07/22 16:24:53;;;;;;;9.50;6.23;;;;;;;;;;6175213;28;20036;-82
2022/07/22 16:27:53;;;;;;;9.57;6.33;;;;;;;;;;6174016;28;20049;-82
2022/07/22 16:30:53;;;;;;;9.83;6.50;;;;;;;;;;6180878;28;20109;-81
2022/07/22 16:33:54;;;;;;;8.40;5.73;;;;;;;;;;6170067;28;20022;-82
2022/07/22 16:36:54;;;;;;;13.38;6.63;;;;;;;;;;6183498;28;20030;-81
2022/07/22 16:39:55;;;;;;;12.10;6.30;;;;;;;;;;6157556;28;20026;-81
2022/07/22 16:42:55;;;;;;;9.07;6.47;;;;;;;;;;6152773;28;20258;-81
2022/07/22 16:45:55;;;;;;;11.68;6.43;;;;;;;;;;6143710;28;20087;-81
2022/07/22 16:48:56;;;;;;;11.55;6.78;;;;;;;;;;6127352;28;20496;-81
2022/07/22 16:51:56;;;;;;;9.90;5.57;;;;;;;;;;6164935;28;20502;-81
2022/07/22 16:54:56;;;;;;;9.03;5.07;;;;;;;;;;6147162;28;20022;-82
2022/07/22 16:57:56;;;;;;;9.93;5.60;;;;;;;;;;6146377;28;20050;-82
2022/07/22 17:00:57;;;;;;;8.40;6.10;;;;;;;;;;6167943;28;20406;-81
2022/07/22 17:03:57;;;;;;;11.73;6.90;;;;;;;;;;6151788;28;20391;-81
2022/07/22 17:06:57;;;;;;;7.90;5.80;;;;;;;;;;6144120;28;20489;-81
2022/07/22 17:09:57;;;;;;;11.13;5.47;;;;;;;;;;6149481;28;20050;-81
2022/07/22 17:12:58;;;;;;;8.50;6.37;;;;;;;;;;6158363;28;20510;-81
2022/07/22 17:15:58;;;;;;;11.53;6.33;;;;;;;;;;6155723;28;20028;-81
2022/07/22 17:18:58;;;;;;;9.32;6.07;;;;;;;;;;6173182;28;20335;-82
2022/07/22 17:21:59;;;;;;;9.73;6.53;;;;;;;;;;6161817;28;20634;-81
2022/07/22 17:24:59;;;;;;;14.53;6.03;;;;;;;;;;6153068;28;20111;-81
2022/07/22 17:27:59;;;;;;;12.60;6.03;;;;;;;;;;6159179;28;20399;-81
2022/07/22 17:30:59;;;;;;;12.27;5.60;;;;;;;;;;6172420;28;20034;-81
2022/07/22 17:34:00;;;;;;;14.77;6.23;;;;;;;;;;6188235;28;20030;-81
2022/07/22 17:37:00;;;;;;;;;;;;;;;;;;6146202;28;20281;-81
2022/07/22 17:40:00;;;;;;;11.38;5.32;;;;;;;;;;6171212;28;20342;-81
2022/07/22 17:43:01;;;;;;;7.82;5.45;;;;;;;;;;6159444;28;20022;-81
2022/07/22 17:46:01;;;;;;;;;;;;;;;;;;6161249;28;20026;-81
2022/07/22 17:49:01;;;;;;;13.68;6.35;;;;;;;;;;6160591;28;19909;-81
2022/07/22 17:52:01;;;;;;;;;;;;;;;;;;6173504;28;19999;-81
2022/07/22 17:55:02;;;;;;;15.20;6.95;;;;;;;;;;6162528;28;19906;-82
2022/07/22 17:58:02;;;;;;;;;;;;;;;;;;6151335;28;20015;-81
2022/07/22 18:01:03;;;;;;;19.13;5.60;;;;;;;;;;6160481;28;19918;-81